LFKD weather

Sollières Sardières Airport
Calvi, Rhône Alpes, France

Public forecast

Using degrees Celsius for public forecast. Weather courtesy of forecast.io.

METAR (pilot weather report)

Closest report is Torino-Aeritalia Airport, 35.4 nm (65.6 km) ESE. Retrieved 2019/09/16 12:50 UTC (1 hour ago):

LIMA 161250Z 19004KT 120V240 CAVOK 28/16 Q1018

TAF (pilot weather forecast)

Closest forecast is Turin Airport, 36.0 nm (66.7 km) E. Retrieved 2019/09/16 12:00 UTC (2 hours ago):

TAF LIMF 161100Z 1612/1712 VRB05KT CAVOK TEMPO 1702/1706 4000 BR